Weather observations for the past three days for
Harvey Municipal Airport
Imperial (Metric)
Date Time (cdt) Wind (mph) Vis. (mi.) Weather Sky Cond. Temperature (ºF) Relative Humidity Wind Chill (°F) Heat Index (°F) Pressure Precipitation (in)
Air Dwpt 6 hour altimeter (in) sea level (mb) 1 hr 3 hr 6 hr
Max. Min.
03 14:35 W 24 G 37 10.00 A Few Clouds and Breezy FEW095 73.4 28.4 19% 29.67 0.0
03 13:55 W 25 G 38 10.00 Fair and Breezy CLR 73.4 30.2 20% 29.7 0.0
03 13:35 W 20 G 31 10.00 Fair CLR 71.6 30.2 22% 29.72 0.0
03 13:15 W 17 G 26 10.00 A Few Clouds FEW085 71.6 32 23% 29.73 0.0
03 12:55 W 22 G 31 10.00 A Few Clouds and Breezy FEW085 69.8 30.2 23% 29.75 0.0
03 12:15 W 24 10.00 Fair and Breezy CLR 69.8 30.2 23% 29.78 0.0
03 11:55 SW 21 10.00 Fair and Breezy CLR 68 30.2 24% 29.8 0.0
03 11:35 W 15 G 24 10.00 Fair CLR 66.2 30.2 26% 29.81 0.0
03 11:15 W 15 G 23 10.00 Fair CLR 64.4 30.2 28% 29.83 0.0
03 10:55 W 17 G 23 10.00 Fair CLR 62.6 30.2 30% 29.84 0.0
03 10:35 W 18 10.00 Fair CLR 62.6 30.2 30% 29.84 0.0
03 10:15 SW 16 10.00 Fair CLR 60.8 30.2 31% 29.86 0.0
03 09:55 SW 14 10.00 Fair CLR 59 32 36% 29.86 0.0
03 09:35 SW 12 10.00 Fair CLR 57.2 32 39% 29.87 0.0
03 09:15 SW 10 10.00 Fair CLR 53.6 32 44% 29.88 0.0
03 08:55 SW 9 10.00 Fair CLR 50 32 50% 47 29.89 0.0
03 08:35 SW 10 10.00 Fair CLR 46.4 32 57% 42 29.89 0.0
03 08:15 SW 8 10.00 Fair CLR 44.6 32 61% 41 29.9 0.0
03 07:55 SW 9 10.00 Fair CLR 41 32 70% 36 29.9 0.0
03 07:35 SW 6 10.00 Fair CLR 39.2 30.2 70% 36 29.9 0.0
03 07:15 W 6 10.00 Fair CLR 39.2 30.2 70% 36 29.9 0.0
03 06:55 W 7 10.00 Fair CLR 37.4 28.4 70% 33 29.9 0.0
03 06:35 W 10 10.00 Fair CLR 39.2 28.4 65% 33 29.9 0.0
03 06:15 W 9 10.00 Fair CLR 37.4 28.4 70% 31 29.9 0.0
03 05:55 W 10 10.00 Fair CLR 37.4 30.2 75% 31 29.9 0.0
03 05:35 W 9 10.00 Fair CLR 35.6 30.2 81% 29 29.9 0.0
03 05:15 W 7 10.00 Fair CLR 32 28.4 87% 26 29.91 0.0
03 04:55 W 7 10.00 Fair CLR 32 28.4 87% 26 29.91 0.0
03 04:35 W 7 10.00 Fair CLR 37.4 28.4 70% 33 29.9 0.0
03 04:15 W 7 10.00 Fair CLR 37.4 28.4 70% 33 29.9 0.0
03 03:55 W 8 10.00 Fair CLR 37.4 28.4 70% 32 29.9 0.0
03 03:35 NW 9 10.00 Fair CLR 37.4 28.4 70% 31 29.9 0.0
03 03:15 W 10 10.00 Fair CLR 37.4 28.4 70% 31 29.9 0.0
03 02:55 NW 9 10.00 Fair CLR 41 30.2 66% 36 29.9 0.0
03 02:35 NW 8 10.00 Fair CLR 41 30.2 66% 36 29.9 0.0
03 02:15 NW 8 10.00 Fair CLR 42.8 30.2 61% 39 29.9 0.0
03 01:55 NW 9 10.00 Fair CLR 41 30.2 66% 36 29.9 0.0
03 01:35 NW 10 10.00 A Few Clouds FEW065 42.8 30.2 61% 38 29.91 0.0
03 01:15 NW 10 10.00 Mostly Cloudy BKN065 48.2 28.4 46% 44 29.91 0.0
03 00:55 N 13 10.00 Overcast OVC065 50 30.2 47% 46 29.9 0.0
03 00:35 N 15 10.00 Overcast OVC070 51.8 30.2 44% 29.9 0.0
03 00:15 N 16 10.00 Overcast OVC070 51.8 30.2 44% 29.9 0.0
02 23:55 NW 15 10.00 Overcast OVC070 51.8 30.2 44% 29.9 0.0
02 23:35 N 14 10.00 Mostly Cloudy BKN070 51.8 33.8 50% 29.89 0.0
02 23:15 N 14 10.00 Fair CLR 53.6 35.6 51% 29.89 0.0
02 22:55 NW 15 10.00 A Few Clouds FEW065 FEW090 51.8 37.4 58% 29.89 0.0
02 22:35 NW 10 10.00 Partly Cloudy FEW070 SCT085 50 35.6 58% 46 29.88 0.0
02 22:15 NW 8 10.00 A Few Clouds FEW075 FEW090 51.8 35.6 54% 29.87 0.0
02 21:55 N 10 10.00 Partly Cloudy SCT075 SCT095 53.6 35.6 51% 29.87 0.0
02 21:35 N 12 10.00 Overcast SCT075 OVC100 57.2 35.6 44% 29.86 0.0
02 21:15 N 10 10.00 Mostly Cloudy BKN100 57.2 35.6 44% 29.85 0.0
02 20:55 N 10 10.00 Overcast OVC100 59 35.6 42% 29.84 0.0
02 20:35 N 10 10.00 Overcast OVC100 60.8 35.6 39% 29.83 0.0
02 20:15 N 13 10.00 Mostly Cloudy BKN095 62.6 35.6 37% 29.82 0.0
02 19:55 N 16 G 22 10.00 Mostly Cloudy SCT080 BKN100 64.4 35.6 34% 29.81 0.0
02 19:35 N 20 10.00 Partly Cloudy SCT080 SCT100 64.4 35.6 34% 29.8 0.0
02 19:15 N 20 9.00 Fair CLR 64.4 35.6 34% 29.79 0.0
02 18:55 N 18 G 30 10.00 Fair CLR 66.2 33.8 30% 29.78 0.0
02 18:35 N 23 G 32 8.00 Fair and Breezy CLR 68 33.8 28% 29.78 0.0
02 18:15 N 17 G 31 10.00 Fair CLR 69.8 35.6 29% 29.77 0.0
02 17:55 N 20 G 29 10.00 Fair CLR 69.8 35.6 29% 29.77 0.0
02 17:35 NW 24 10.00 Fair and Breezy CLR 69.8 37.4 31% 29.76 0.0
02 17:15 NW 24 10.00 Fair and Breezy CLR 68 37.4 33% 29.76 0.0
02 16:55 NW 23 G 30 10.00 Fair and Breezy CLR 68 39.2 35% 29.76 0.0
02 16:35 NW 23 G 30 10.00 Fair and Breezy CLR 68 39.2 35% 29.76 0.0
02 16:15 NW 25 G 33 10.00 Fair and Breezy CLR 68 37.4 33% 29.76 0.0
02 15:55 NW 24 G 33 10.00 Fair and Breezy CLR 69.8 35.6 29% 29.76 0.0
02 15:35 NW 25 G 33 10.00 Fair and Breezy CLR 69.8 35.6 29% 29.76 0.0
02 15:15 NW 24 G 32 10.00 Fair and Breezy CLR 69.8 33.8 27% 29.76 0.0
02 14:55 NW 23 G 33 10.00 Fair and Breezy CLR 71.6 33.8 25% 29.77 0.0
02 14:35 W 23 G 33 10.00 Fair and Breezy CLR 71.6 32 23% 29.77 0.0
02 14:15 NW 26 G 33 10.00 Fair and Windy CLR 71.6 30.2 22% 29.78 0.0
02 13:55 W 22 10.00 Fair and Breezy CLR 69.8 30.2 23% 29.78 0.0
02 13:35 NW 21 10.00 Fair and Breezy CLR 69.8 33.8 27% 29.79 0.0
02 13:15 NW 17 10.00 Fair CLR 68 33.8 28% 29.8 0.0
02 12:55 W 16 G 23 10.00 A Few Clouds FEW110 66.2 32 28% 29.81 0.0
02 12:35 W 17 G 25 10.00 Fair CLR 66.2 32 28% 29.82 0.0
02 12:15 W 20 10.00 Fair CLR 64.4 32 30% 29.82 0.0
02 11:55 W 16 G 28 10.00 A Few Clouds FEW100 62.6 30.2 30% 29.83 0.0
02 11:35 W 20 G 26 10.00 Fair CLR 62.6 30.2 30% 29.83 0.0
02 11:15 W 20 G 28 10.00 A Few Clouds FEW100 64.4 30.2 28% 29.84 0.0
02 10:55 W 21 G 31 9.00 A Few Clouds and Breezy FEW100 62.6 30.2 30% 29.85 0.0
02 10:35 SW 25 G 32 10.00 Partly Cloudy and Breezy SCT100 60.8 30.2 31% 29.85 0.0
02 10:15 SW 28 G 35 10.00 Partly Cloudy and Windy SCT110 59 30.2 34% 29.86 0.0
02 09:55 SW 25 10.00 Partly Cloudy and Breezy SCT100 SCT120 55.4 30.2 38% 29.85 0.0
02 09:35 SW 22 G 32 10.00 Fair and Breezy CLR 55.4 30.2 38% 29.85 0.0
02 09:15 SW 30 10.00 A Few Clouds and Windy FEW110 55.4 28.4 36% 29.86 0.0
02 08:55 SW 25 G 35 10.00 Partly Cloudy and Breezy SCT110 53.6 28.4 38% 29.87 0.0
02 08:35 SW 22 G 28 10.00 A Few Clouds and Breezy FEW120 53.6 28.4 38% 29.88 0.0
02 08:15 SW 25 G 35 10.00 Fair and Breezy CLR 51.8 28.4 41% 29.89 0.0
02 07:55 SW 22 G 30 10.00 Fair and Breezy CLR 50 28.4 43% 44 29.9 0.0
02 07:35 SW 22 G 28 10.00 Fair and Breezy CLR 50 30.2 47% 44 29.91 0.0
02 07:15 SW 22 G 29 10.00 Fair and Breezy CLR 48.2 28.4 46% 41 29.92 0.0
02 06:55 SW 20 G 28 10.00 Fair CLR 48.2 28.4 46% 42 29.93 0.0
02 06:35 SW 14 10.00 Partly Cloudy SCT110 46.4 30.2 53% 41 29.93 0.0
02 06:15 SW 15 10.00 Mostly Cloudy BKN120 44.6 30.2 57% 38 29.94 0.0
02 05:55 SW 14 10.00 A Few Clouds FEW110 44.6 30.2 57% 39 29.94 0.0
02 05:35 SW 15 10.00 Fair CLR 44.6 30.2 57% 38 29.95 0.0
02 05:15 SW 16 10.00 Fair CLR 44.6 30.2 57% 38 29.96 0.0
02 04:55 SW 15 10.00 Fair CLR 44.6 30.2 57% 38 29.96 0.0
02 04:35 SW 13 10.00 Fair CLR 42.8 30.2 61% 37 29.96 0.0
02 04:15 SW 17 10.00 Fair CLR 44.6 28.4 53% 38 29.96 0.0
02 03:55 SW 15 10.00 Fair CLR 42.8 30.2 61% 36 29.96 0.0
02 03:35 SW 15 10.00 Fair CLR 42.8 28.4 57% 36 29.96 0.0
02 03:15 SW 14 10.00 Fair CLR 41 28.4 61% 34 29.96 0.0
02 02:55 SW 10 10.00 Fair CLR 41 30.2 66% 35 29.97 0.0
02 02:35 SW 13 10.00 Fair CLR 41 30.2 66% 34 29.98 0.0
02 02:15 SW 10 10.00 Fair CLR 41 30.2 66% 35 29.99 0.0
02 01:55 SW 14 10.00 Fair CLR 42.8 30.2 61% 36 29.99 0.0
02 01:35 SW 14 10.00 Fair CLR 42.8 30.2 61% 36 30 0.0
02 01:15 SW 10 10.00 Fair CLR 42.8 30.2 61% 38 30 0.0
02 00:55 SW 12 10.00 Fair CLR 42.8 30.2 61% 37 30 0.0
02 00:35 SW 13 10.00 Fair CLR 44.6 30.2 57% 39 30.01 0.0
02 00:15 SW 12 10.00 Fair CLR 42.8 32 66% 37 30.01 0.0
01 23:55 SW 12 10.00 Fair CLR 42.8 32 66% 37 30.02 0.0
01 23:35 S 10 10.00 Fair CLR 46.4 30.2 53% 42 30.02 0.0
01 23:15 S 13 10.00 Fair CLR 46.4 30.2 53% 41 30.02 0.0
01 22:55 S 13 10.00 Fair CLR 48.2 30.2 50% 43 30.03 0.0
01 22:35 S 12 10.00 Fair CLR 50 30.2 47% 46 30.03 0.0
01 22:15 S 14 10.00 Fair CLR 50 30.2 47% 45 30.03 0.0
01 21:55 S 13 10.00 Fair CLR 50 30.2 47% 46 30.03 0.0
01 21:35 S 12 10.00 Fair CLR 51.8 30.2 44% 30.03 0.0
01 21:15 S 12 9.00 Fair CLR 50 30.2 47% 46 30.03 0.0
01 20:55 S 9 10.00 Fair CLR 51.8 30.2 44% 30.03 0.0
01 20:35 S 7 8.00 Fair CLR 55.4 30.2 38% 30.03 0.0
01 20:15 S 8 9.00 Fair CLR 59 30.2 34% 30.03 0.0
01 19:55 S 8 10.00 Fair CLR 60.8 28.4 29% 30.03 0.0
01 19:35 Vrbl 3 10.00 Fair CLR 62.6 28.4 27% 30.04 0.0
01 19:15 Calm 10.00 Fair CLR 62.6 28.4 27% 30.04 0.0
01 18:55 Vrbl 7 7.00 Fair CLR 62.6 28.4 27% 30.05 0.0
01 18:35 N 3 10.00 Fair CLR 60.8 28.4 29% 30.05 0.0
01 18:15 Calm 2.50 Fair with Haze CLR 60.8 28.4 29% 30.06 0.0
01 17:55 Vrbl 5 10.00 Fair CLR 60.8 28.4 29% 30.06 0.0
01 17:35 Vrbl 6 10.00 Fair CLR 60.8 28.4 29% 30.07 0.0
01 17:15 Vrbl 6 G 13 10.00 Fair CLR 60.8 28.4 29% 30.07 0.0
01 16:55 Vrbl 6 G 14 10.00 Fair CLR 60.8 28.4 29% 30.08 0.0
01 16:35 N 6 G 13 10.00 Fair CLR 60.8 28.4 29% 30.08 0.0
01 16:15 NW 10 10.00 Fair CLR 59 28.4 31% 30.09 0.0
01 15:55 Vrbl 7 10.00 Fair CLR 60.8 28.4 29% 30.09 0.0
01 15:35 NE 9 G 18 10.00 Fair CLR 59 28.4 31% 30.1 0.0
01 15:15 N 8 G 21 9.00 Fair CLR 59 28.4 31% 30.1 0.0
01 14:55 NE 13 G 20 10.00 Fair CLR 59 28.4 31% 30.1 0.0
01 14:35 NE 6 G 14 10.00 Fair CLR 59 26.6 29% 30.1 0.0
01 14:15 Calm 10.00 Fair CLR 57.2 28.4 33% 30.1 0.0
01 13:55 Calm 10.00 Fair CLR 57.2 26.6 31% 30.11 0.0
01 13:35 N 9 10.00 Fair CLR 57.2 28.4 33% 30.11 0.0
01 12:55 Vrbl 5 10.00 Fair CLR 55.4 26.6 33% 30.12 0.0
01 12:35 Calm 10.00 Fair CLR 53.6 26.6 35% 30.13 0.0
01 12:15 N 6 10.00 Partly Cloudy SCT090 53.6 26.6 35% 30.13 0.0
01 11:55 Calm 10.00 Mostly Cloudy BKN090 53.6 24.8 33% 30.13 0.0
01 11:35 SE 5 10.00 Partly Cloudy SCT085 55.4 24.8 31% 30.13 0.0
01 11:15 Vrbl 5 10.00 A Few Clouds FEW090 51.8 24.8 35% 30.13 0.0
01 10:55 SE 3 10.00 Fair CLR 50 24.8 37% 30.13 0.0
01 10:35 Calm 8.00 Fair CLR 48.2 24.8 40% 30.13 0.0
01 10:15 Calm 10.00 Fair CLR 48.2 26.6 43% 30.14 0.0
01 09:55 S 3 10.00 Fair CLR 46.4 28.4 50% 30.14 0.0
01 09:35 Calm 10.00 Fair CLR 42.8 28.4 57% 30.14 0.0
01 09:15 Vrbl 5 10.00 Fair CLR 41 28.4 61% 38 30.14 0.0
01 08:55 S 5 10.00 Fair CLR 39.2 28.4 65% 36 30.14 0.0
01 08:35 S 5 10.00 A Few Clouds FEW070 37.4 32 81% 34 30.14 0.0
01 08:15 S 6 10.00 Overcast OVC070 33.8 32 93% 29 30.14 0.0
01 07:55 SE 5 10.00 Mostly Cloudy SCT070 BKN085 30.2 30.2 100% 26 30.15 0.0
01 07:35 Calm 10.00 Mostly Cloudy FEW055 BKN075 BKN085 30.2 30.2 100% 30.14 0.0
01 07:15 SE 5 10.00 Overcast BKN055 OVC075 30.2 30.2 100% 26 30.14 0.0
01 06:55 SE 6 10.00 Overcast OVC060 30.2 28.4 93% 25 30.14 0.0
01 06:35 Calm 10.00 Overcast OVC060 28.4 28.4 100% 30.14 0.0
01 06:15 S 3 10.00 Overcast BKN060 OVC080 28.4 26.6 93% 30.14 0.0
01 05:55 S 3 10.00 Overcast SCT060 OVC080 28.4 26.6 93% 30.14 0.0
01 05:35 SE 5 10.00 Mostly Cloudy SCT060 BKN080 26.6 24.8 93% 22 30.14 0.0
01 05:15 SE 5 10.00 Mostly Cloudy BKN060 24.8 24.8 100% 20 30.13 0.0
01 04:55 S 5 10.00 Mostly Cloudy BKN060 28.4 26.6 93% 24 30.13 0.0
01 04:35 S 5 10.00 A Few Clouds FEW065 26.6 26.6 100% 22 30.13 0.0
01 04:15 S 5 10.00 Mostly Cloudy BKN065 26.6 24.8 93% 22 30.13 0.0
01 03:55 S 6 10.00 Overcast OVC065 28.4 26.6 93% 23 30.13 0.0
01 03:35 S 6 10.00 Mostly Cloudy BKN065 26.6 26.6 100% 21 30.13 0.0
01 03:15 S 6 10.00 Partly Cloudy SCT065 28.4 24.8 86% 23 30.13 0.0
01 02:55 S 6 10.00 Fair CLR 28.4 24.8 86% 23 30.13 0.0
01 02:35 S 6 10.00 Fair CLR 28.4 26.6 93% 23 30.13 0.0
01 02:15 S 6 10.00 Fair CLR 28.4 24.8 86% 23 30.14 0.0
01 01:55 S 6 10.00 Fair CLR 28.4 26.6 93% 23 30.14 0.0
01 01:35 S 7 10.00 Fair CLR 28.4 26.6 93% 22 30.14 0.0
01 01:15 S 5 10.00 Fair CLR 28.4 24.8 86% 24 30.14 0.0
01 00:55 S 6 10.00 Fair CLR 30.2 24.8 80% 25 30.14 0.0
01 00:35 SE 7 10.00 Fair CLR 30.2 24.8 80% 24 30.13 0.0
01 00:15 SE 7 10.00 Fair CLR 32 24.8 75% 26 30.13 0.0
30 23:55 S 6 10.00 Fair CLR 32 24.8 75% 27 30.13 0.0
30 23:35 SE 5 10.00 Fair CLR 32 24.8 75% 28 30.13 0.0
30 23:15 SE 6 10.00 Fair CLR 32 24.8 75% 27 30.13 0.0
30 22:55 SE 7 10.00 Fair CLR 32 24.8 75% 26 30.13 0.0
30 22:35 SE 6 10.00 Fair CLR 32 24.8 75% 27 30.14 0.0
30 22:15 E 8 10.00 Fair CLR 32 23 69% 25 30.14 0.0
30 21:55 E 8 10.00 Fair CLR 32 23 69% 25 30.14 0.0
30 21:35 E 7 10.00 Fair CLR 33.8 23 65% 28 30.13 0.0
30 21:15 E 9 10.00 Fair CLR 35.6 23 60% 29 30.13 0.0
30 20:55 E 10 10.00 Fair CLR 39.2 23 52% 33 30.12 0.0
30 20:35 N 9 10.00 Fair CLR 42.8 21.2 42% 38 30.12 0.0
30 20:15 N 9 10.00 Fair CLR 44.6 21.2 39% 40 30.11 0.0
30 19:55 N 8 10.00 A Few Clouds FEW060 46.4 21.2 37% 43 30.11 0.0
30 19:35 NW 9 10.00 A Few Clouds FEW060 46.4 21.2 37% 42 30.11 0.0
30 19:15 N 10 10.00 A Few Clouds FEW060 46.4 21.2 37% 42 30.12 0.0
30 18:55 NW 12 10.00 A Few Clouds FEW055 46.4 21.2 37% 42 30.12 0.0
30 18:35 NW 14 10.00 Mostly Cloudy BKN055 48.2 21.2 34% 43 30.12 0.0
30 18:15 NE 8 G 16 10.00 Partly Cloudy SCT055 48.2 21.2 34% 45 30.12 0.0
30 17:55 NW 6 G 17 10.00 Partly Cloudy SCT050 48.2 23 37% 46 30.13 0.0
30 17:35 N 9 10.00 Partly Cloudy SCT050 46.4 23 40% 42 30.13 0.0
30 17:15 N 9 10.00 Mostly Cloudy BKN050 46.4 23 40% 42 30.13 0.0
30 16:55 NE 14 10.00 Partly Cloudy SCT049 46.4 23 40% 41 30.14 0.0
30 16:35 N 10 G 17 10.00 Fair CLR 44.6 23 43% 40 30.14 0.0
30 16:15 N 9 G 15 10.00 A Few Clouds FEW045 44.6 23 43% 40 30.14 0.0
30 15:55 N 12 10.00 Mostly Cloudy BKN045 44.6 23 43% 39 30.15 0.0
30 15:35 N 7 G 14 10.00 Overcast OVC043 44.6 23 43% 41 30.15 0.0
30 15:15 N 9 G 15 10.00 Overcast OVC042 42.8 23 46% 38 30.15 0.0
30 14:55 N 12 10.00 Overcast OVC043 42.8 23 46% 37 30.16 0.0
Date Time (cdt) Wind (mph) Vis. (mi.) Weather Sky Cond. Air Dwpt Max. Min. Relative Humidity Wind Chill (°F) Heat Index (°F) altimeter (in) sea level (mb) 1 hr 3 hr 6 hr
6 hour
Temperature (ºF) Pressure Precipitation (in)